Terminal Aerodrome Forecast
Issued by NWS

Home | Current Version | Previous Version | Text Only | Print | Product List | Glossary On
Versions: 1 2 3 4 5 6 7 8 9 10 11 12 13 14
000
FTUS41 KCAR 302300
TAFFVE
TAF
KFVE 302332Z 3100/3124 20005KT P6SM BKN050
     FM310900 19003KT 2SM BR BKN005
     FM311200 19006KT P6SM -SHRA OVC005
     FM311400 20006KT P6SM -SHRA OVC015
     FM311700 22007KT 5SM -SHRA BR OVC015=

USA.gov is the U.S. government's official web portal to all federal, state and local government web resources and services.